Time;durP1;ratioP1;P1;durP2;ratioP2;P2;SDS_P1;SDS_P2;PMS_P1;PMS_P2;Temp;Humidity;BMP_temperature;BMP_pressure;BME280_temperature;BME280_humidity;BME280_pressure;Samples;Min_cycle;Max_cycle;Signal;HPM_P1;HPM_P2
2023/12/06 00:02:08;;;;;;;255.57;80.97;;;;;;;-144.73;100.00;54715.59;4985630;28;20042;-77
2023/12/06 00:04:33;;;;;;;275.42;81.53;;;;;;;-144.73;100.00;54690.97;4983792;28;20030;-77
2023/12/06 00:06:58;;;;;;;238.75;75.35;;;;;;;-144.73;100.00;54738.16;4984406;28;20038;-77
2023/12/06 00:09:24;;;;;;;245.90;79.47;;;;;;;-144.73;100.00;54690.97;4982862;28;20026;-77
2023/12/06 00:11:50;;;;;;;231.50;75.95;;;;;;;-144.73;100.00;54674.53;4986568;28;20106;-77
2023/12/06 00:14:15;;;;;;;263.88;76.03;;;;;;;-144.73;100.00;54719.69;4981079;28;20046;-77
2023/12/06 00:16:43;;;;;;;243.00;77.28;;;;;;;-144.73;100.00;54690.97;4988141;28;20038;-77
2023/12/06 00:19:09;;;;;;;264.33;81.22;;;;;;;-144.73;100.00;54695.06;4981032;28;20081;-77
2023/12/06 00:21:34;;;;;;;246.70;80.50;;;;;;;-144.73;100.00;54715.59;4978548;28;20125;-78
2023/12/06 00:24:00;;;;;;;230.65;72.30;;;;;;;-144.73;100.00;54686.84;4985755;28;20035;-77
2023/12/06 00:26:25;;;;;;;248.55;77.25;;;;;;;-144.73;100.00;54721.75;4990252;28;20031;-78
2023/12/06 00:28:51;;;;;;;257.02;76.50;;;;;;;-144.73;100.00;54727.91;4982725;28;20092;-78
2023/12/06 00:31:17;;;;;;;245.45;73.32;;;;;;;-144.73;100.00;54707.38;4976331;28;20046;-78
2023/12/06 00:33:42;;;;;;;267.23;84.72;;;;;;;-144.73;100.00;54670.44;4979733;28;20092;-77
2023/12/06 00:36:08;;;;;;;231.80;74.57;;;;;;;-144.73;100.00;54699.16;4974020;28;20105;-76
2023/12/06 00:38:33;;;;;;;245.82;71.63;;;;;;;-144.73;100.00;54715.59;4976363;28;20478;-77
2023/12/06 00:41:00;;;;;;;246.13;80.75;;;;;;;-144.73;100.00;54727.91;4976078;28;20034;-77
2023/12/06 00:43:25;;;;;;;232.35;71.03;;;;;;;-144.73;100.00;54773.06;4976700;28;20030;-77
2023/12/06 00:45:50;;;;;;;249.73;77.03;;;;;;;-144.73;100.00;54674.53;4989130;28;20030;-77
2023/12/06 00:48:16;;;;;;;262.63;79.78;;;;;;;-144.73;100.00;54695.06;4975351;28;20030;-77
2023/12/06 00:50:42;;;;;;;216.38;71.13;;;;;;;-144.73;100.00;54711.47;4986774;28;20057;-77
2023/12/06 00:53:10;;;;;;;207.23;73.40;;;;;;;-144.73;100.00;54674.53;4975435;28;20034;-77
2023/12/06 00:55:36;;;;;;;231.15;75.00;;;;;;;-144.73;100.00;54715.59;4976372;28;20102;-77
2023/12/06 00:58:05;;;;;;;237.95;73.65;;;;;;;-144.73;100.00;54711.47;4984111;28;20041;-77
2023/12/06 01:00:30;;;;;;;222.25;72.75;;;;;;;-144.73;100.00;54742.28;4966826;28;20096;-77
2023/12/06 01:02:56;;;;;;;268.55;78.15;;;;;;;-144.73;100.00;54740.22;4988078;28;20106;-77
2023/12/06 01:05:21;;;;;;;293.42;83.47;;;;;;;-144.73;100.00;54727.91;4978144;28;20070;-77
2023/12/06 01:07:46;;;;;;;266.83;79.22;;;;;;;-144.73;100.00;54695.06;4980537;28;20118;-77
2023/12/06 01:10:12;;;;;;;241.60;76.65;;;;;;;-144.73;100.00;54703.28;4979430;28;20134;-77
2023/12/06 01:12:37;;;;;;;267.27;76.47;;;;;;;-144.73;100.00;54686.84;4980678;28;20050;-77
2023/12/06 01:15:04;;;;;;;253.77;75.10;;;;;;;-144.73;100.00;54719.69;4978623;28;20034;-77
2023/12/06 01:17:32;;;;;;;242.00;73.55;;;;;;;-144.73;100.00;54684.78;4970531;28;20094;-76
2023/12/06 01:19:58;;;;;;;279.48;82.25;;;;;;;-144.73;100.00;54707.38;4979956;28;20027;-76
2023/12/06 01:22:23;;;;;;;258.58;76.53;;;;;;;-144.73;100.00;54705.31;4989218;28;20129;-76
2023/12/06 01:24:48;;;;;;;268.60;81.30;;;;;;;-144.73;100.00;54715.59;4983880;28;20107;-78
2023/12/06 01:27:14;;;;;;;265.40;80.22;;;;;;;-144.73;100.00;54709.44;4974733;28;20081;-78
2023/12/06 01:29:39;;;;;;;252.05;78.43;;;;;;;-144.73;100.00;54707.38;4975535;28;20023;-77
2023/12/06 01:32:05;;;;;;;265.05;80.00;;;;;;;-144.73;100.00;54732.00;4978609;28;20053;-77
2023/12/06 01:34:30;;;;;;;266.27;83.82;;;;;;;-144.73;100.00;54707.38;4979472;28;20023;-77
2023/12/06 01:36:56;;;;;;;258.92;79.15;;;;;;;-144.73;100.00;54748.44;4972865;28;20726;-79
2023/12/06 01:39:21;;;;;;;248.07;74.25;;;;;;;-144.73;100.00;54715.59;4985093;28;20590;-78
2023/12/06 01:41:51;;;;;;;270.63;81.15;;;;;;;-144.73;100.00;54707.38;4986556;28;20509;-78
2023/12/06 01:44:16;;;;;;;248.65;79.55;;;;;;;-144.73;100.00;54748.44;4986337;28;20404;-77
2023/12/06 01:46:42;;;;;;;246.07;75.30;;;;;;;-144.73;100.00;54736.13;4986425;28;20034;-77
2023/12/06 01:49:10;;;;;;;255.32;80.43;;;;;;;-144.73;100.00;54711.47;4990269;28;20069;-77
2023/12/06 01:51:37;;;;;;;218.52;73.65;;;;;;;-144.73;100.00;54707.38;4979872;28;20052;-77
2023/12/06 01:54:03;;;;;;;245.40;73.95;;;;;;;-144.73;100.00;54727.91;4977046;28;20035;-77
2023/12/06 01:56:28;;;;;;;238.75;76.43;;;;;;;-144.73;100.00;54740.22;4984045;28;20043;-77
2023/12/06 01:58:54;;;;;;;222.63;74.28;;;;;;;-144.73;100.00;54732.00;4980703;28;20075;-77
2023/12/06 02:01:19;;;;;;;240.55;76.38;;;;;;;-144.73;100.00;54703.28;4983620;28;20108;-77
2023/12/06 02:03:45;;;;;;;254.95;78.22;;;;;;;-144.73;100.00;54721.75;4985247;28;20022;-77
2023/12/06 02:06:12;;;;;;;247.98;76.47;;;;;;;-144.73;100.00;54699.16;4977834;28;20038;-77
2023/12/06 02:08:41;;;;;;;212.45;72.55;;;;;;;-144.73;100.00;54715.59;4982602;28;20041;-77
2023/12/06 02:11:06;;;;;;;229.02;76.90;;;;;;;-144.73;100.00;54695.06;4980477;28;20042;-77
2023/12/06 02:13:32;;;;;;;233.98;75.63;;;;;;;-144.73;100.00;54725.84;4979816;28;20030;-77
2023/12/06 02:15:59;;;;;;;237.80;73.03;;;;;;;-144.73;100.00;54736.13;4980379;28;20043;-77
2023/12/06 02:18:27;;;;;;;238.43;75.43;;;;;;;-144.73;100.00;54703.28;4982808;28;20058;-77
2023/12/06 02:20:53;;;;;;;254.52;78.25;;;;;;;-144.73;100.00;54727.91;4982858;28;20085;-77
2023/12/06 02:23:22;;;;;;;216.10;73.25;;;;;;;-144.73;100.00;54707.38;4983934;28;20560;-77
2023/12/06 02:25:48;;;;;;;260.70;83.80;;;;;;;-144.73;100.00;54711.47;4986467;28;20058;-77
2023/12/06 02:28:13;;;;;;;239.07;80.05;;;;;;;-144.73;100.00;54723.81;4986432;28;20022;-77
2023/12/06 02:30:39;;;;;;;246.00;81.45;;;;;;;-144.73;100.00;54690.97;4979398;28;20073;-77
2023/12/06 02:33:04;;;;;;;230.55;70.53;;;;;;;-144.73;100.00;54723.81;4987603;28;20025;-77
2023/12/06 02:35:35;;;;;;;238.82;75.50;;;;;;;-144.73;100.00;54682.75;4983669;28;20023;-77
2023/12/06 02:38:02;;;;;;;225.70;73.25;;;;;;;-144.73;100.00;54736.13;4990046;28;20019;-77
2023/12/06 02:40:30;;;;;;;227.25;75.40;;;;;;;-144.73;100.00;54715.59;4985850;28;20041;-77
2023/12/06 02:42:55;;;;;;;231.60;74.68;;;;;;;-144.73;100.00;54699.16;4984078;28;20030;-78
2023/12/06 02:45:21;;;;;;;232.13;77.40;;;;;;;-144.73;100.00;54707.38;4983294;28;20018;-77
2023/12/06 02:47:46;;;;;;;226.55;75.45;;;;;;;-144.73;100.00;54711.47;4981062;28;20035;-77
2023/12/06 02:50:12;;;;;;;222.23;73.10;;;;;;;-144.73;100.00;54723.81;4982175;28;20045;-77
2023/12/06 02:52:37;;;;;;;223.77;72.88;;;;;;;-144.73;100.00;54719.69;4988090;28;20037;-77
2023/12/06 02:55:03;;;;;;;217.77;71.03;;;;;;;-144.73;100.00;54721.75;4983126;28;20122;-77
2023/12/06 02:57:28;;;;;;;234.52;75.05;;;;;;;-144.73;100.00;54715.59;4981201;28;20039;-77
2023/12/06 02:59:54;;;;;;;227.25;73.25;;;;;;;-144.73;100.00;54690.97;4980434;28;20081;-77
2023/12/06 03:02:19;;;;;;;238.80;78.78;;;;;;;-144.73;100.00;54715.59;4977712;28;20070;-77
2023/12/06 03:04:44;;;;;;;242.00;79.35;;;;;;;-144.73;100.00;54699.16;4981396;28;20030;-77
2023/12/06 03:07:10;;;;;;;235.25;77.88;;;;;;;-144.73;100.00;54715.59;4976231;28;20046;-78
2023/12/06 03:09:36;;;;;;;235.32;72.90;;;;;;;-144.73;100.00;54709.44;4991820;28;20034;-77
2023/12/06 03:12:01;;;;;;;243.57;80.72;;;;;;;-144.73;100.00;54711.47;4992748;28;20041;-77
2023/12/06 03:14:27;;;;;;;209.43;72.05;;;;;;;-144.73;100.00;54674.53;4977597;28;20046;-78
2023/12/06 03:16:52;;;;;;;211.45;67.88;;;;;;;-144.73;100.00;54744.31;4936558;28;1194286;-78
2023/12/06 03:19:17;;;;;;;216.70;70.75;;;;;;;-144.73;100.00;54670.44;4977276;28;20563;-77
2023/12/06 03:21:43;;;;;;;253.07;78.88;;;;;;;-144.73;100.00;54711.47;4979438;28;20046;-77
2023/12/06 03:24:08;;;;;;;240.30;80.72;;;;;;;-144.73;100.00;54723.81;4990727;28;20053;-77
2023/12/06 03:26:33;;;;;;;245.23;77.43;;;;;;;-144.73;100.00;54732.00;4978901;28;20042;-77
2023/12/06 03:28:59;;;;;;;205.45;70.00;;;;;;;-144.73;100.00;54723.81;4982628;28;20033;-77
2023/12/06 03:31:24;;;;;;;233.50;78.63;;;;;;;-144.73;100.00;54723.81;4982465;28;20394;-77
2023/12/06 03:33:49;;;;;;;225.60;76.00;;;;;;;-144.73;100.00;54715.59;4988108;28;20026;-77
2023/12/06 03:36:15;;;;;;;231.35;74.97;;;;;;;-144.73;100.00;54695.06;4980061;28;20256;-77
2023/12/06 03:38:40;;;;;;;244.57;80.30;;;;;;;-144.73;100.00;54732.00;4983235;28;20085;-77
2023/12/06 03:41:06;;;;;;;224.20;75.75;;;;;;;-144.73;100.00;54736.13;4983776;28;20073;-77
2023/12/06 03:43:31;;;;;;;225.98;76.32;;;;;;;-144.73;100.00;54690.97;4988618;28;20170;-77
2023/12/06 03:45:57;;;;;;;252.75;78.32;;;;;;;-144.73;100.00;54686.84;4981813;28;20034;-77
2023/12/06 03:48:22;;;;;;;225.75;73.15;;;;;;;-144.73;100.00;54697.13;4982823;28;20019;-77
2023/12/06 03:50:47;;;;;;;228.57;75.07;;;;;;;-144.73;100.00;54670.44;4983710;28;20098;-77
2023/12/06 03:53:13;;;;;;;247.18;78.53;;;;;;;-144.73;100.00;54674.53;4981657;28;20026;-77
2023/12/06 03:56:09;;;;;;;246.10;80.47;;;;;;;-144.73;100.00;54719.69;4976570;28;20035;-77
2023/12/06 03:58:37;;;;;;;237.57;75.82;;;;;;;-144.73;100.00;54744.31;4983013;28;20034;-77
2023/12/06 04:01:03;;;;;;;270.85;82.22;;;;;;;-144.73;100.00;54744.31;4978862;28;20022;-77
2023/12/06 04:03:29;;;;;;;226.05;76.10;;;;;;;-144.73;100.00;54738.16;4981621;28;20041;-77
2023/12/06 04:05:54;;;;;;;220.10;72.72;;;;;;;-144.73;100.00;54711.47;4977159;28;20031;-77
2023/12/06 04:08:19;;;;;;;219.93;74.30;;;;;;;-144.73;100.00;54695.06;4983936;28;20022;-77
2023/12/06 04:10:45;;;;;;;237.02;77.43;;;;;;;-144.73;100.00;54699.16;4979582;28;20089;-77
2023/12/06 04:13:10;;;;;;;285.05;84.38;;;;;;;-144.73;100.00;54721.75;4982984;28;20032;-77
2023/12/06 04:15:36;;;;;;;230.80;74.47;;;;;;;-144.73;100.00;54715.59;4984627;28;20030;-77
2023/12/06 04:18:01;;;;;;;266.63;85.03;;;;;;;-144.73;100.00;54740.22;4984874;28;20022;-77
2023/12/06 04:20:27;;;;;;;251.15;79.75;;;;;;;-144.73;100.00;54736.13;4988727;28;20122;-77
2023/12/06 04:22:52;;;;;;;247.65;78.13;;;;;;;-144.73;100.00;54736.13;4988719;28;20037;-77
2023/12/06 04:25:18;;;;;;;237.18;77.97;;;;;;;-144.73;100.00;54699.16;4986651;28;20103;-77
2023/12/06 04:27:43;;;;;;;264.27;78.07;;;;;;;-144.73;100.00;54713.53;4982433;28;20119;-77
2023/12/06 04:30:10;;;;;;;256.75;78.45;;;;;;;-144.73;100.00;54699.16;4988581;28;20022;-77
2023/12/06 04:32:36;;;;;;;259.45;82.40;;;;;;;-144.73;100.00;54688.91;4978106;28;20046;-77
2023/12/06 04:35:02;;;;;;;270.05;86.32;;;;;;;-144.73;100.00;54715.59;4984767;28;20114;-77
2023/12/06 04:37:28;;;;;;;262.92;83.38;;;;;;;-144.73;100.00;54695.06;4981000;28;20473;-77
2023/12/06 04:39:53;;;;;;;287.35;90.30;;;;;;;-144.73;100.00;54703.28;4985995;28;20061;-77
2023/12/06 04:42:19;;;;;;;249.25;78.75;;;;;;;-144.73;100.00;54719.69;4988436;28;20084;-77
2023/12/06 04:44:44;;;;;;;261.42;82.50;;;;;;;-144.73;100.00;54732.00;4984441;28;20038;-77
2023/12/06 04:47:09;;;;;;;238.35;79.65;;;;;;;-144.73;100.00;54715.59;4982087;28;20125;-77
2023/12/06 04:49:35;;;;;;;244.40;78.32;;;;;;;-144.73;100.00;54740.22;4988195;28;20498;-77
2023/12/06 04:52:03;;;;;;;306.20;92.32;;;;;;;-144.73;100.00;54732.00;4977270;28;20062;-77
2023/12/06 04:54:28;;;;;;;230.27;75.18;;;;;;;-144.73;100.00;54736.13;4984302;28;20030;-77
2023/12/06 04:56:54;;;;;;;252.52;81.47;;;;;;;-144.73;100.00;54715.59;4981666;28;20068;-77
2023/12/06 04:59:19;;;;;;;265.63;83.97;;;;;;;-144.73;100.00;54699.16;4980549;28;20054;-77
2023/12/06 05:01:45;;;;;;;271.10;82.30;;;;;;;-144.73;100.00;54715.59;4986310;28;20168;-77
2023/12/06 05:04:10;;;;;;;244.38;77.90;;;;;;;-144.73;100.00;54670.44;4977799;28;20031;-77
2023/12/06 05:06:36;;;;;;;279.52;85.63;;;;;;;-144.73;100.00;54732.00;4979124;28;20038;-77
2023/12/06 05:09:02;;;;;;;278.17;84.40;;;;;;;-144.73;100.00;54707.38;4988890;28;20026;-77
2023/12/06 05:11:27;;;;;;;296.60;85.78;;;;;;;-144.73;100.00;54719.69;4980021;28;20046;-77
2023/12/06 05:13:52;;;;;;;276.67;85.03;;;;;;;-144.73;100.00;54695.06;4981365;28;20069;-77
2023/12/06 05:16:18;;;;;;;267.23;82.05;;;;;;;-144.73;100.00;54711.47;4981496;28;20051;-76
2023/12/06 05:18:43;;;;;;;288.92;83.70;;;;;;;-144.73;100.00;54690.97;4986784;28;20084;-77
2023/12/06 05:21:09;;;;;;;272.15;82.47;;;;;;;-144.73;100.00;54736.13;4981798;28;20502;-76
2023/12/06 05:23:34;;;;;;;301.17;92.45;;;;;;;-144.73;100.00;54699.16;4979643;28;20037;-76
2023/12/06 05:26:01;;;;;;;295.00;87.30;;;;;;;-144.73;100.00;54707.38;4984823;28;20034;-77
2023/12/06 05:28:26;;;;;;;307.65;94.88;;;;;;;-144.73;100.00;54699.16;4984158;28;20077;-77
2023/12/06 05:30:52;;;;;;;316.92;87.70;;;;;;;-144.73;100.00;54699.16;4978779;28;20035;-77
2023/12/06 05:33:17;;;;;;;263.95;79.25;;;;;;;-144.73;100.00;54703.28;4986443;28;20390;-77
2023/12/06 05:35:45;;;;;;;278.88;83.55;;;;;;;-144.73;100.00;54715.59;4983080;28;20034;-76
2023/12/06 05:38:11;;;;;;;288.45;85.63;;;;;;;-144.73;100.00;54680.69;4985779;28;20030;-77
2023/12/06 05:40:36;;;;;;;294.83;86.60;;;;;;;-144.73;100.00;54719.69;4979795;28;20042;-76
2023/12/06 05:43:02;;;;;;;303.08;87.28;;;;;;;-144.73;100.00;54736.13;4978571;28;20118;-77
2023/12/06 05:45:27;;;;;;;319.60;93.32;;;;;;;-144.73;100.00;54699.16;4980301;28;20106;-76
2023/12/06 05:47:52;;;;;;;323.90;94.30;;;;;;;-144.73;100.00;54715.59;4983935;28;20062;-76
2023/12/06 05:50:18;;;;;;;308.42;90.40;;;;;;;-144.73;100.00;54752.53;4985217;28;20027;-76
2023/12/06 05:52:43;;;;;;;349.30;100.75;;;;;;;-144.73;100.00;54711.47;4987325;28;20054;-76
2023/12/06 05:55:09;;;;;;;278.17;84.20;;;;;;;-144.73;100.00;54699.16;4978860;28;20054;-76
2023/12/06 05:57:34;;;;;;;338.45;95.78;;;;;;;-144.73;100.00;54678.63;4980479;28;20077;-76
2023/12/06 06:00:00;;;;;;;304.20;89.40;;;;;;;-144.73;100.00;54715.59;4982076;28;20030;-77
2023/12/06 06:02:25;;;;;;;329.20;94.72;;;;;;;-144.73;100.00;54732.00;4979120;28;20047;-76
2023/12/06 06:04:50;;;;;;;359.48;101.40;;;;;;;-144.73;100.00;54682.75;4984509;28;20038;-77
2023/12/06 06:07:16;;;;;;;271.20;81.80;;;;;;;-144.73;100.00;54719.69;4984327;28;20589;-76
2023/12/06 06:09:42;;;;;;;367.42;100.32;;;;;;;-144.73;100.00;54723.81;4988424;28;20030;-77
2023/12/06 06:12:07;;;;;;;334.20;92.15;;;;;;;-144.73;100.00;54719.69;4986096;28;20042;-77
2023/12/06 06:14:33;;;;;;;338.08;96.82;;;;;;;-144.73;100.00;54690.97;4980380;28;20042;-77
2023/12/06 06:16:59;;;;;;;324.50;94.55;;;;;;;-144.73;100.00;54701.22;4980940;28;20231;-77
2023/12/06 06:19:24;;;;;;;351.23;96.95;;;;;;;-144.73;100.00;54711.47;4989805;28;20035;-77
2023/12/06 06:21:50;;;;;;;287.33;86.55;;;;;;;-144.73;100.00;54711.47;4983804;28;20421;-77
2023/12/06 06:24:15;;;;;;;377.35;104.72;;;;;;;-144.73;100.00;54740.22;4986304;28;20035;-77
2023/12/06 06:26:41;;;;;;;327.13;91.60;;;;;;;-144.73;100.00;54736.13;4979441;28;20038;-77
2023/12/06 06:29:07;;;;;;;340.92;98.63;;;;;;;-144.73;100.00;54699.16;4983204;28;20081;-77
2023/12/06 06:31:34;;;;;;;329.80;93.25;;;;;;;-144.73;100.00;54715.59;4979375;28;20035;-77
2023/12/06 06:34:01;;;;;;;354.60;95.82;;;;;;;-144.73;100.00;54674.53;4982788;28;20023;-77
2023/12/06 06:36:29;;;;;;;367.00;102.25;;;;;;;-144.73;100.00;54703.28;4978609;28;20042;-77
2023/12/06 06:38:57;;;;;;;355.65;95.22;;;;;;;-144.73;100.00;54695.06;4979331;28;20430;-77
2023/12/06 06:41:24;;;;;;;368.15;97.78;;;;;;;-144.73;100.00;54699.16;4985142;28;20038;-77
2023/12/06 06:43:51;;;;;;;375.25;100.88;;;;;;;-144.73;100.00;54695.06;4980313;28;20018;-78
2023/12/06 06:46:16;;;;;;;377.83;95.65;;;;;;;-144.73;100.00;54715.59;4980918;28;20042;-77
2023/12/06 06:48:42;;;;;;;368.58;102.93;;;;;;;-144.73;100.00;54707.38;4980170;28;20033;-77
2023/12/06 06:51:09;;;;;;;370.75;98.97;;;;;;;-144.73;100.00;54715.59;4986181;28;20050;-77
2023/12/06 06:53:35;;;;;;;322.67;92.25;;;;;;;-144.73;100.00;54711.47;4986803;28;20018;-76
2023/12/06 06:56:01;;;;;;;384.10;98.07;;;;;;;-144.73;100.00;54697.13;4981844;28;20045;-77
2023/12/06 06:58:27;;;;;;;329.20;93.95;;;;;;;-144.73;100.00;54690.97;4991174;28;20421;-77
2023/12/06 07:00:53;;;;;;;348.83;96.68;;;;;;;-144.73;100.00;54723.81;4986154;28;20035;-77
2023/12/06 07:03:21;;;;;;;385.52;103.93;;;;;;;-144.73;100.00;54695.06;4982996;28;20026;-77
2023/12/06 07:05:46;;;;;;;373.25;102.40;;;;;;;-144.73;100.00;54707.38;4988823;28;20034;-77
2023/12/06 07:08:12;;;;;;;361.00;100.60;;;;;;;-144.73;100.00;54711.47;4986473;28;20037;-76
2023/12/06 07:10:38;;;;;;;368.45;103.10;;;;;;;-144.73;100.00;54727.91;4977466;28;20025;-76
2023/12/06 07:13:04;;;;;;;424.83;107.72;;;;;;;-144.73;100.00;54719.69;4985261;28;20022;-77
2023/12/06 07:15:32;;;;;;;342.73;94.60;;;;;;;-144.73;100.00;54709.44;4982081;28;20027;-77
2023/12/06 07:17:58;;;;;;;387.08;98.43;;;;;;;-144.73;100.00;54703.28;4979779;28;20030;-77
2023/12/06 07:20:24;;;;;;;374.08;103.65;;;;;;;-144.73;100.00;54756.66;4989547;28;20477;-77
2023/12/06 07:22:50;;;;;;;357.58;99.20;;;;;;;-144.73;100.00;54707.38;4989282;28;20125;-79
2023/12/06 07:25:20;;;;;;;340.98;99.30;;;;;;;-144.73;100.00;54727.91;4983761;28;20022;-78
2023/12/06 07:27:46;;;;;;;353.25;101.05;;;;;;;-144.73;100.00;54723.81;4977535;28;20445;-77
2023/12/06 07:30:17;;;;;;;365.92;95.20;;;;;;;-144.73;100.00;54752.53;4981560;28;20554;-77
2023/12/06 07:32:42;;;;;;;302.58;80.15;;;;;;;-144.73;100.00;54748.44;4981364;28;20035;-78
2023/12/06 07:35:08;;;;;;;412.65;102.15;;;;;;;-144.73;100.00;54703.28;4986186;28;20096;-78
2023/12/06 07:37:37;;;;;;;406.38;101.93;;;;;;;-144.73;100.00;54729.97;4980610;28;20490;-77
2023/12/06 07:40:09;;;;;;;390.63;102.50;;;;;;;-144.73;100.00;54686.84;4982470;28;20045;-77
2023/12/06 07:42:35;;;;;;;404.90;104.00;;;;;;;-144.73;100.00;54713.53;4994236;28;20038;-78
2023/12/06 07:45:00;;;;;;;374.77;97.22;;;;;;;-144.73;100.00;54719.69;4985804;28;20406;-78
2023/12/06 07:47:29;;;;;;;377.35;100.07;;;;;;;-144.73;100.00;54756.66;4986024;28;20118;-78
2023/12/06 07:49:54;;;;;;;405.98;108.55;;;;;;;-144.73;100.00;54713.53;4983951;28;20062;-78
2023/12/06 07:52:20;;;;;;;414.13;103.97;;;;;;;-144.73;100.00;54756.66;4981560;28;20050;-78
2023/12/06 07:54:46;;;;;;;351.52;94.50;;;;;;;-144.73;100.00;54707.38;4989047;28;20030;-77
2023/12/06 07:57:13;;;;;;;397.48;105.05;;;;;;;-144.73;100.00;54740.22;4980501;28;20046;-78
2023/12/06 07:59:39;;;;;;;417.83;107.90;;;;;;;-144.73;100.00;54732.00;4982268;28;20027;-78
2023/12/06 08:02:04;;;;;;;416.73;107.25;;;;;;;-144.73;100.00;54754.59;4993662;28;20042;-78
2023/12/06 08:04:30;;;;;;;395.67;101.80;;;;;;;-144.73;100.00;54719.69;4986730;28;20023;-78
2023/12/06 08:06:55;;;;;;;388.98;101.80;;;;;;;-144.73;100.00;54723.81;4989010;28;20066;-78
2023/12/06 08:09:21;;;;;;;421.70;108.00;;;;;;;-144.73;100.00;54695.06;4988971;28;20036;-79
2023/12/06 08:11:46;;;;;;;408.80;110.25;;;;;;;-144.73;100.00;54740.22;4989362;28;20034;-72
2023/12/06 08:14:14;;;;;;;402.27;104.25;;;;;;;-144.73;100.00;54748.44;4977580;28;20027;-72
2023/12/06 08:16:39;;;;;;;413.50;106.82;;;;;;;-144.73;100.00;54723.81;4974950;28;20042;-73
2023/12/06 08:19:04;;;;;;;367.33;103.55;;;;;;;-144.73;100.00;54701.22;4978461;28;20027;-71
2023/12/06 08:21:30;;;;;;;384.52;104.15;;;;;;;-144.73;100.00;54748.44;4981937;28;20045;-73
2023/12/06 08:23:55;;;;;;;419.48;113.65;;;;;;;-144.73;100.00;54736.13;4982634;28;20049;-72
2023/12/06 08:26:21;;;;;;;443.85;115.63;;;;;;;-144.73;100.00;54736.13;4980135;28;20039;-72
2023/12/06 08:28:46;;;;;;;430.38;105.95;;;;;;;-144.73;100.00;54695.06;4980334;28;20023;-71
2023/12/06 08:31:12;;;;;;;443.58;110.70;;;;;;;-144.73;100.00;54742.28;4971234;28;20043;-72
2023/12/06 08:33:41;;;;;;;378.67;102.13;;;;;;;-144.73;100.00;54732.00;4980063;28;20023;-72
2023/12/06 08:36:06;;;;;;;407.77;105.40;;;;;;;-144.73;100.00;54736.13;4980581;28;20039;-73
2023/12/06 08:38:32;;;;;;;325.98;94.65;;;;;;;-144.73;100.00;54723.81;4972575;28;20520;-72
2023/12/06 08:41:00;;;;;;;363.25;99.97;;;;;;;-144.73;100.00;54752.53;4977180;28;20038;-73
2023/12/06 08:43:25;;;;;;;346.40;100.57;;;;;;;-144.73;100.00;54715.59;4982094;28;20104;-70
2023/12/06 08:45:51;;;;;;;398.33;100.78;;;;;;;-144.73;100.00;54695.06;4979340;28;20058;-72
2023/12/06 08:48:16;;;;;;;387.90;103.90;;;;;;;-144.73;100.00;54752.53;4982773;28;20080;-72
2023/12/06 08:50:42;;;;;;;363.25;97.03;;;;;;;-144.73;100.00;54736.13;4964831;28;20022;-71
2023/12/06 08:53:08;;;;;;;360.00;99.28;;;;;;;-144.73;100.00;54719.69;4979029;28;20089;-72
2023/12/06 08:55:34;;;;;;;357.70;103.38;;;;;;;-144.73;100.00;54695.06;4972569;28;20057;-72
2023/12/06 08:57:59;;;;;;;375.23;104.50;;;;;;;-144.73;100.00;54775.13;4987491;28;20326;-72
2023/12/06 09:00:24;;;;;;;327.10;97.43;;;;;;;-144.73;100.00;54734.06;4979843;28;20022;-73
2023/12/06 09:02:50;;;;;;;321.85;92.57;;;;;;;-144.73;100.00;54738.16;4975908;28;20118;-73
2023/12/06 09:05:15;;;;;;;324.85;97.15;;;;;;;-144.73;100.00;54760.75;4975040;28;20046;-73
2023/12/06 09:07:41;;;;;;;332.23;96.00;;;;;;;-144.73;100.00;54719.69;4977073;28;20066;-73
2023/12/06 09:10:10;;;;;;;328.35;100.50;;;;;;;-144.73;100.00;54686.84;4978065;28;20026;-73
2023/12/06 09:12:35;;;;;;;324.63;93.97;;;;;;;-144.73;100.00;54674.53;4977406;28;20039;-74
2023/12/06 09:15:01;;;;;;;319.27;99.85;;;;;;;-144.73;100.00;54727.91;4973961;28;20032;-74
2023/12/06 09:17:27;;;;;;;370.83;101.88;;;;;;;-144.73;100.00;54719.69;4977993;28;20034;-73
2023/12/06 09:19:52;;;;;;;356.35;101.15;;;;;;;-144.73;100.00;54703.28;4981707;28;20065;-72
2023/12/06 09:22:20;;;;;;;332.60;97.72;;;;;;;-144.73;100.00;54723.81;4978506;28;20042;-74
2023/12/06 09:24:47;;;;;;;323.27;98.72;;;;;;;-144.73;100.00;54723.81;4974198;28;20043;-73
2023/12/06 09:27:13;;;;;;;375.92;102.05;;;;;;;-144.73;100.00;54764.84;4971504;28;20050;-72
2023/12/06 09:29:39;;;;;;;391.17;106.13;;;;;;;-144.73;100.00;54736.13;4979708;28;20029;-73
2023/12/06 09:32:05;;;;;;;343.70;95.28;;;;;;;-144.73;100.00;54764.84;4973315;28;20034;-73
2023/12/06 09:34:30;;;;;;;317.35;98.38;;;;;;;-144.73;100.00;54707.38;4974055;28;20045;-73
2023/12/06 09:36:56;;;;;;;358.85;101.00;;;;;;;-144.73;100.00;54703.28;4977518;28;20047;-73
2023/12/06 09:39:22;;;;;;;344.55;100.25;;;;;;;-144.73;100.00;54723.81;4979016;28;20031;-74
2023/12/06 09:41:48;;;;;;;360.83;102.75;;;;;;;-144.73;100.00;54715.59;4980298;28;20039;-76
2023/12/06 09:44:17;;;;;;;377.63;117.13;;;;;;;-144.73;100.00;54721.75;4976988;28;20057;-75
2023/12/06 09:46:44;;;;;;;362.30;103.15;;;;;;;-144.73;100.00;54699.16;4976008;28;20039;-75
2023/12/06 09:49:15;;;;;;;342.65;99.40;;;;;;;-144.73;100.00;54732.00;4983013;28;20026;-74
2023/12/06 09:51:41;;;;;;;367.15;104.10;;;;;;;-144.73;100.00;54713.53;4972861;28;20055;-75
2023/12/06 09:54:07;;;;;;;288.63;93.13;;;;;;;-144.73;100.00;54736.13;4985247;28;20062;-75
2023/12/06 09:56:35;;;;;;;313.95;98.03;;;;;;;-144.73;100.00;54732.00;4981854;28;20498;-75
2023/12/06 09:59:02;;;;;;;289.77;93.05;;;;;;;-144.73;100.00;54789.50;4978192;28;20030;-75
2023/12/06 10:01:27;;;;;;;311.13;95.82;;;;;;;-144.73;100.00;54744.31;4973269;28;20058;-76
2023/12/06 10:03:53;;;;;;;329.83;96.85;;;;;;;-144.73;100.00;54715.59;4981596;28;20050;-74
2023/12/06 10:06:18;;;;;;;299.83;94.93;;;;;;;-144.73;100.00;54801.81;4979186;28;20034;-75
2023/12/06 10:08:51;;;;;;;318.58;95.88;;;;;;;-144.73;100.00;54711.47;4987132;28;20618;-75
2023/12/06 10:11:21;;;;;;;288.65;95.88;;;;;;;-144.73;100.00;54684.78;4979080;28;20043;-75
2023/12/06 10:13:47;;;;;;;300.50;93.65;;;;;;;-144.73;100.00;54707.38;4975665;28;20026;-74
2023/12/06 10:16:20;;;;;;;320.65;97.32;;;;;;;-144.73;100.00;54690.97;4980872;28;20101;-74
2023/12/06 10:18:48;;;;;;;314.77;96.53;;;;;;;-144.73;100.00;54748.44;4995154;28;20093;-74
2023/12/06 10:21:14;;;;;;;326.92;98.72;;;;;;;-144.73;100.00;54703.28;4987787;28;20065;-73
2023/12/06 10:23:40;;;;;;;333.13;100.70;;;;;;;-144.73;100.00;54719.69;4985800;28;20026;-73
2023/12/06 10:26:06;;;;;;;353.55;101.75;;;;;;;-144.73;100.00;54699.16;4982788;28;20126;-73
2023/12/06 10:28:35;;;;;;;307.20;94.35;;;;;;;-144.73;100.00;54703.28;4984325;28;20057;-74
2023/12/06 10:31:02;;;;;;;334.67;94.28;;;;;;;-144.73;100.00;54715.59;4979711;28;20031;-76
2023/12/06 10:33:29;;;;;;;368.30;100.28;;;;;;;-144.73;100.00;54736.13;4983458;28;20019;-75
2023/12/06 10:35:57;;;;;;;378.02;105.68;;;;;;;-144.73;100.00;54727.91;4981210;28;20125;-74
2023/12/06 10:38:24;;;;;;;331.45;98.88;;;;;;;-144.73;100.00;54695.06;4978217;28;20036;-74
2023/12/06 10:40:51;;;;;;;313.35;93.22;;;;;;;-144.73;100.00;54732.00;4977492;28;20038;-74